Shorkot Weather



Shorkot's Current Weather

Temprature 12.83o clear sky

clear sky

Rain: 0 %

Min Temprature12.83o
Max Temprature12.83o
Humidity34
Wind Speed3.21 m/h
Sun Rise07:14:41
Sun Set17:41:36
Current Time: 23-Jan-2021 18:58:45
Lat/Lon: 31.9099, 70.8774




Shorkot's Geo Location



Shorkot's Weather Forecast

Time Overall Temp Min Temp Max Temp Humidity Wind Speed Rain
23-Jan-2021 (Sat)
20:00:00 clear sky 15.130 11.440 15.130 30 2.67 m/h 0 %
23:00:00 clear sky 10.250 7.940 10.250 43 0.49 m/h 0 %
24-Jan-2021 (Sun)
02:00:00 clear sky 8.620 7.940 8.620 45 1.89 m/h 0 %
05:00:00 clear sky 7.920 7.830 7.920 45 2.96 m/h 0 %
08:00:00 clear sky 9.080 9.080 9.080 42 3.21 m/h 0 %
11:00:00 clear sky 17.660 17.660 17.660 23 3.61 m/h 0 %
14:00:00 clear sky 20.500 20.500 20.500 18 2.65 m/h 0 %
17:00:00 clear sky 16.890 16.890 16.890 25 1.6 m/h 0 %
20:00:00 clear sky 9.330 9.330 9.330 40 1.21 m/h 0 %
23:00:00 clear sky 7.780 7.780 7.780 42 1.26 m/h 0 %
25-Jan-2021 (Mon)
02:00:00 clear sky 8.420 8.420 8.420 39 2.27 m/h 0 %
05:00:00 clear sky 7.820 7.820 7.820 44 2.31 m/h 0 %
08:00:00 clear sky 9.310 9.310 9.310 37 2.14 m/h 0 %
11:00:00 clear sky 19.860 19.860 19.860 19 1.95 m/h 0 %
14:00:00 clear sky 22.190 22.190 22.190 18 0.88 m/h 0 %
17:00:00 clear sky 17.750 17.750 17.750 27 0.74 m/h 0 %
20:00:00 clear sky 12.230 12.230 12.230 35 2.15 m/h 0 %
23:00:00 clear sky 8.840 8.840 8.840 45 0.4 m/h 0 %
26-Jan-2021 (Tue)
02:00:00 clear sky 8.180 8.180 8.180 46 1.15 m/h 0 %
05:00:00 clear sky 6.990 6.990 6.990 54 0.77 m/h 0 %
08:00:00 clear sky 9.540 9.540 9.540 43 1.21 m/h 0 %
11:00:00 clear sky 19.730 19.730 19.730 22 2.17 m/h 0 %
14:00:00 clear sky 22.150 22.150 22.150 18 1.9 m/h 0 %
17:00:00 clear sky 18.730 18.730 18.730 24 1.34 m/h 0 %
20:00:00 clear sky 11.590 11.590 11.590 39 1.87 m/h 0 %
23:00:00 clear sky 8.810 8.810 8.810 47 0.88 m/h 0 %
27-Jan-2021 (Wed)
02:00:00 clear sky 7.600 7.600 7.600 53 0.46 m/h 0 %
05:00:00 clear sky 8.000 8.000 8.000 50 1.67 m/h 0 %
08:00:00 clear sky 10.360 10.360 10.360 41 1.69 m/h 0 %
11:00:00 clear sky 20.350 20.350 20.350 21 2.04 m/h 0 %
14:00:00 few clouds 22.540 22.540 22.540 19 1.09 m/h 0 %
17:00:00 few clouds 18.710 18.710 18.710 26 0.79 m/h 0 %
20:00:00 clear sky 12.170 12.170 12.170 38 1.74 m/h 0 %
23:00:00 clear sky 9.610 9.610 9.610 44 1.32 m/h 0 %
28-Jan-2021 (Thu)
02:00:00 clear sky 8.450 8.450 8.450 49 1.25 m/h 0 %
05:00:00 clear sky 7.040 7.040 7.040 56 0.79 m/h 0 %
08:00:00 clear sky 9.340 9.340 9.340 46 0.38 m/h 0 %
11:00:00 clear sky 19.870 19.870 19.870 22 0.24 m/h 0 %
14:00:00 clear sky 22.520 22.520 22.520 18 0.4 m/h 0 %
17:00:00 clear sky 18.690 18.690 18.690 26 0.18 m/h 0 %

Famous Cities (60)